sensor_id;sensor_type;location;lat;lon;timestamp;temperature;humidity
22674;DHT22;11504;43.334;21.918;2023-07-08T00:00:46;23.2;100.0
22674;DHT22;11504;43.334;21.918;2023-07-08T00:05:25;23.2;100.0
22674;DHT22;11504;43.334;21.918;2023-07-08T00:10:15;23.2;100.0
22674;DHT22;11504;43.334;21.918;2023-07-08T00:14:54;23.2;100.0
22674;DHT22;11504;43.334;21.918;2023-07-08T00:19:30;23.1;100.0
22674;DHT22;11504;43.334;21.918;2023-07-08T00:24:06;23.1;100.0
22674;DHT22;11504;43.334;21.918;2023-07-08T00:28:43;23.1;100.0
22674;DHT22;11504;43.334;21.918;2023-07-08T00:33:20;23.0;100.0
22674;DHT22;11504;43.334;21.918;2023-07-08T00:37:56;23.0;100.0
22674;DHT22;11504;43.334;21.918;2023-07-08T00:42:33;22.9;100.0
22674;DHT22;11504;43.334;21.918;2023-07-08T00:47:15;22.9;100.0
22674;DHT22;11504;43.334;21.918;2023-07-08T00:51:52;22.8;100.0
22674;DHT22;11504;43.334;21.918;2023-07-08T00:56:35;22.8;100.0
22674;DHT22;11504;43.334;21.918;2023-07-08T01:01:34;22.6;100.0
22674;DHT22;11504;43.334;21.918;2023-07-08T01:06:25;22.6;100.0
22674;DHT22;11504;43.334;21.918;2023-07-08T01:11:13;22.5;100.0
22674;DHT22;11504;43.334;21.918;2023-07-08T01:15:50;22.5;100.0
22674;DHT22;11504;43.334;21.918;2023-07-08T01:20:27;22.3;100.0
22674;DHT22;11504;43.334;21.918;2023-07-08T01:25:07;22.3;100.0
22674;DHT22;11504;43.334;21.918;2023-07-08T01:29:50;22.3;100.0
22674;DHT22;11504;43.334;21.918;2023-07-08T01:34:27;22.3;100.0
22674;DHT22;11504;43.334;21.918;2023-07-08T01:39:04;22.3;100.0
22674;DHT22;11504;43.334;21.918;2023-07-08T01:43:41;22.3;100.0
22674;DHT22;11504;43.334;21.918;2023-07-08T01:48:23;22.3;100.0
22674;DHT22;11504;43.334;21.918;2023-07-08T01:53:18;22.4;100.0
22674;DHT22;11504;43.334;21.918;2023-07-08T01:58:09;22.4;100.0
22674;DHT22;11504;43.334;21.918;2023-07-08T02:02:47;22.4;100.0
22674;DHT22;11504;43.334;21.918;2023-07-08T02:07:27;22.4;100.0
22674;DHT22;11504;43.334;21.918;2023-07-08T02:12:05;22.4;100.0
22674;DHT22;11504;43.334;21.918;2023-07-08T02:16:43;22.4;100.0
22674;DHT22;11504;43.334;21.918;2023-07-08T02:21:20;22.4;100.0
22674;DHT22;11504;43.334;21.918;2023-07-08T02:25:56;22.4;100.0
22674;DHT22;11504;43.334;21.918;2023-07-08T02:30:33;22.4;100.0
22674;DHT22;11504;43.334;21.918;2023-07-08T02:35:09;22.4;100.0
22674;DHT22;11504;43.334;21.918;2023-07-08T02:39:46;22.4;100.0
22674;DHT22;11504;43.334;21.918;2023-07-08T02:44:23;22.4;100.0
22674;DHT22;11504;43.334;21.918;2023-07-08T02:49:00;22.4;100.0
22674;DHT22;11504;43.334;21.918;2023-07-08T02:53:36;22.2;100.0
22674;DHT22;11504;43.334;21.918;2023-07-08T02:58:12;22.2;100.0
22674;DHT22;11504;43.334;21.918;2023-07-08T03:02:48;22.1;100.0
22674;DHT22;11504;43.334;21.918;2023-07-08T03:07:25;22.1;100.0
22674;DHT22;11504;43.334;21.918;2023-07-08T03:12:01;22.0;100.0
22674;DHT22;11504;43.334;21.918;2023-07-08T03:16:38;22.0;100.0
22674;DHT22;11504;43.334;21.918;2023-07-08T03:21:17;22.0;100.0
22674;DHT22;11504;43.334;21.918;2023-07-08T03:25:55;22.0;100.0
22674;DHT22;11504;43.334;21.918;2023-07-08T03:30:32;22.0;100.0
22674;DHT22;11504;43.334;21.918;2023-07-08T03:35:10;22.0;100.0
22674;DHT22;11504;43.334;21.918;2023-07-08T03:39:47;22.0;100.0
22674;DHT22;11504;43.334;21.918;2023-07-08T03:44:24;22.0;100.0
22674;DHT22;11504;43.334;21.918;2023-07-08T03:49:01;22.0;100.0
22674;DHT22;11504;43.334;21.918;2023-07-08T03:53:38;22.0;100.0
22674;DHT22;11504;43.334;21.918;2023-07-08T03:58:15;22.0;100.0
22674;DHT22;11504;43.334;21.918;2023-07-08T04:02:52;21.9;100.0
22674;DHT22;11504;43.334;21.918;2023-07-08T04:07:30;21.9;100.0
22674;DHT22;11504;43.334;21.918;2023-07-08T04:12:10;22.5;100.0
22674;DHT22;11504;43.334;21.918;2023-07-08T04:16:54;22.5;100.0
22674;DHT22;11504;43.334;21.918;2023-07-08T04:21:35;23.1;100.0
22674;DHT22;11504;43.334;21.918;2023-07-08T04:26:12;23.1;100.0
22674;DHT22;11504;43.334;21.918;2023-07-08T04:30:49;27.4;100.0
22674;DHT22;11504;43.334;21.918;2023-07-08T04:35:26;27.4;100.0
22674;DHT22;11504;43.334;21.918;2023-07-08T04:40:04;31.8;100.0
22674;DHT22;11504;43.334;21.918;2023-07-08T04:44:56;31.8;100.0
22674;DHT22;11504;43.334;21.918;2023-07-08T04:49:32;34.4;100.0
22674;DHT22;11504;43.334;21.918;2023-07-08T04:54:10;34.4;100.0
22674;DHT22;11504;43.334;21.918;2023-07-08T04:58:48;34.4;100.0
22674;DHT22;11504;43.334;21.918;2023-07-08T05:03:25;37.0;100.0
22674;DHT22;11504;43.334;21.918;2023-07-08T05:08:02;37.0;100.0
22674;DHT22;11504;43.334;21.918;2023-07-08T05:12:39;37.4;100.0
22674;DHT22;11504;43.334;21.918;2023-07-08T05:17:16;37.4;100.0
22674;DHT22;11504;43.334;21.918;2023-07-08T05:21:53;37.7;100.0
22674;DHT22;11504;43.334;21.918;2023-07-08T05:26:31;37.7;100.0
22674;DHT22;11504;43.334;21.918;2023-07-08T05:31:09;37.7;100.0
22674;DHT22;11504;43.334;21.918;2023-07-08T05:35:45;37.7;100.0
22674;DHT22;11504;43.334;21.918;2023-07-08T05:40:22;37.7;100.0
22674;DHT22;11504;43.334;21.918;2023-07-08T05:44:58;37.7;100.0
22674;DHT22;11504;43.334;21.918;2023-07-08T05:49:35;38.0;100.0
22674;DHT22;11504;43.334;21.918;2023-07-08T05:54:11;38.0;100.0
22674;DHT22;11504;43.334;21.918;2023-07-08T05:58:49;38.0;100.0
22674;DHT22;11504;43.334;21.918;2023-07-08T06:03:26;38.3;100.0
22674;DHT22;11504;43.334;21.918;2023-07-08T06:08:05;38.3;100.0
22674;DHT22;11504;43.334;21.918;2023-07-08T06:12:43;38.8;100.0
22674;DHT22;11504;43.334;21.918;2023-07-08T06:17:20;38.8;100.0
22674;DHT22;11504;43.334;21.918;2023-07-08T06:21:57;39.4;100.0
22674;DHT22;11504;43.334;21.918;2023-07-08T06:26:34;39.4;100.0
22674;DHT22;11504;43.334;21.918;2023-07-08T06:31:12;37.9;100.0
22674;DHT22;11504;43.334;21.918;2023-07-08T06:35:49;37.9;100.0
22674;DHT22;11504;43.334;21.918;2023-07-08T06:40:26;36.4;100.0
22674;DHT22;11504;43.334;21.918;2023-07-08T06:45:04;36.4;100.0
22674;DHT22;11504;43.334;21.918;2023-07-08T06:49:44;34.6;100.0
22674;DHT22;11504;43.334;21.918;2023-07-08T06:54:21;34.6;100.0
22674;DHT22;11504;43.334;21.918;2023-07-08T06:58:58;34.6;100.0
22674;DHT22;11504;43.334;21.918;2023-07-08T07:03:34;32.8;100.0
22674;DHT22;11504;43.334;21.918;2023-07-08T07:08:11;32.8;100.0
22674;DHT22;11504;43.334;21.918;2023-07-08T07:12:48;32.6;100.0
22674;DHT22;11504;43.334;21.918;2023-07-08T07:17:24;32.6;100.0
22674;DHT22;11504;43.334;21.918;2023-07-08T07:22:03;32.3;100.0
22674;DHT22;11504;43.334;21.918;2023-07-08T07:26:41;32.3;100.0
22674;DHT22;11504;43.334;21.918;2023-07-08T07:31:17;32.4;100.0
22674;DHT22;11504;43.334;21.918;2023-07-08T07:35:54;32.4;100.0
22674;DHT22;11504;43.334;21.918;2023-07-08T07:40:31;32.5;100.0
22674;DHT22;11504;43.334;21.918;2023-07-08T07:45:09;32.5;100.0
22674;DHT22;11504;43.334;21.918;2023-07-08T07:49:48;32.2;100.0
22674;DHT22;11504;43.334;21.918;2023-07-08T07:54:25;32.2;100.0
22674;DHT22;11504;43.334;21.918;2023-07-08T07:59:03;32.2;100.0
22674;DHT22;11504;43.334;21.918;2023-07-08T08:03:40;32.0;100.0
22674;DHT22;11504;43.334;21.918;2023-07-08T08:08:17;32.0;100.0
22674;DHT22;11504;43.334;21.918;2023-07-08T08:12:54;31.4;100.0
22674;DHT22;11504;43.334;21.918;2023-07-08T08:17:30;31.4;100.0
22674;DHT22;11504;43.334;21.918;2023-07-08T08:22:07;30.8;100.0
22674;DHT22;11504;43.334;21.918;2023-07-08T08:26:43;30.8;100.0
22674;DHT22;11504;43.334;21.918;2023-07-08T08:31:19;30.6;100.0
22674;DHT22;11504;43.334;21.918;2023-07-08T08:35:56;30.6;100.0
22674;DHT22;11504;43.334;21.918;2023-07-08T08:40:33;30.3;100.0
22674;DHT22;11504;43.334;21.918;2023-07-08T08:45:18;30.3;100.0
22674;DHT22;11504;43.334;21.918;2023-07-08T08:50:12;30.0;100.0
22674;DHT22;11504;43.334;21.918;2023-07-08T08:55:27;30.0;100.0
22674;DHT22;11504;43.334;21.918;2023-07-08T09:00:16;29.6;100.0
22674;DHT22;11504;43.334;21.918;2023-07-08T09:05:31;29.6;100.0
22674;DHT22;11504;43.334;21.918;2023-07-08T09:10:25;29.6;100.0
22674;DHT22;11504;43.334;21.918;2023-07-08T09:15:37;29.6;100.0
22674;DHT22;11504;43.334;21.918;2023-07-08T09:20:23;29.6;100.0
22674;DHT22;11504;43.334;21.918;2023-07-08T09:25:28;29.6;100.0
22674;DHT22;11504;43.334;21.918;2023-07-08T09:30:28;29.8;100.0
22674;DHT22;11504;43.334;21.918;2023-07-08T09:35:16;29.8;100.0
22674;DHT22;11504;43.334;21.918;2023-07-08T09:40:17;30.0;100.0
22674;DHT22;11504;43.334;21.918;2023-07-08T09:45:15;30.0;100.0
22674;DHT22;11504;43.334;21.918;2023-07-08T09:50:04;30.6;100.0
22674;DHT22;11504;43.334;21.918;2023-07-08T09:55:01;30.6;100.0
22674;DHT22;11504;43.334;21.918;2023-07-08T09:59:48;31.3;100.0
22674;DHT22;11504;43.334;21.918;2023-07-08T10:04:35;31.3;100.0
22674;DHT22;11504;43.334;21.918;2023-07-08T10:09:20;31.3;100.0
22674;DHT22;11504;43.334;21.918;2023-07-08T10:14:11;31.3;100.0
22674;DHT22;11504;43.334;21.918;2023-07-08T10:19:14;31.3;100.0
22674;DHT22;11504;43.334;21.918;2023-07-08T10:24:22;31.3;100.0
22674;DHT22;11504;43.334;21.918;2023-07-08T10:29:54;31.0;100.0
22674;DHT22;11504;43.334;21.918;2023-07-08T10:35:13;31.0;100.0
22674;DHT22;11504;43.334;21.918;2023-07-08T10:40:29;30.8;100.0
22674;DHT22;11504;43.334;21.918;2023-07-08T10:45:40;30.8;100.0
22674;DHT22;11504;43.334;21.918;2023-07-08T10:51:09;30.8;100.0
22674;DHT22;11504;43.334;21.918;2023-07-08T10:56:18;30.8;100.0
22674;DHT22;11504;43.334;21.918;2023-07-08T11:01:33;30.8;100.0
22674;DHT22;11504;43.334;21.918;2023-07-08T11:06:50;30.8;100.0
22674;DHT22;11504;43.334;21.918;2023-07-08T11:11:45;30.5;100.0
22674;DHT22;11504;43.334;21.918;2023-07-08T11:16:41;30.5;100.0
22674;DHT22;11504;43.334;21.918;2023-07-08T11:21:37;30.2;100.0
22674;DHT22;11504;43.334;21.918;2023-07-08T11:26:33;30.2;100.0
22674;DHT22;11504;43.334;21.918;2023-07-08T11:31:34;30.0;100.0
22674;DHT22;11504;43.334;21.918;2023-07-08T11:36:15;30.0;100.0
22674;DHT22;11504;43.334;21.918;2023-07-08T11:41:14;29.7;100.0
22674;DHT22;11504;43.334;21.918;2023-07-08T11:46:07;29.7;100.0
22674;DHT22;11504;43.334;21.918;2023-07-08T11:51:06;29.8;100.0
22674;DHT22;11504;43.334;21.918;2023-07-08T11:56:19;29.8;100.0
22674;DHT22;11504;43.334;21.918;2023-07-08T12:01:19;29.9;100.0
22674;DHT22;11504;43.334;21.918;2023-07-08T12:07:10;29.9;100.0
22674;DHT22;11504;43.334;21.918;2023-07-08T12:12:22;29.8;100.0
22674;DHT22;11504;43.334;21.918;2023-07-08T12:17:15;29.8;100.0
22674;DHT22;11504;43.334;21.918;2023-07-08T12:21:52;29.8;100.0
22674;DHT22;11504;43.334;21.918;2023-07-08T12:26:29;29.8;100.0
22674;DHT22;11504;43.334;21.918;2023-07-08T12:31:17;29.8;100.0
22674;DHT22;11504;43.334;21.918;2023-07-08T12:36:01;29.8;100.0
22674;DHT22;11504;43.334;21.918;2023-07-08T12:40:41;29.8;100.0
22674;DHT22;11504;43.334;21.918;2023-07-08T12:45:23;29.8;100.0
22674;DHT22;11504;43.334;21.918;2023-07-08T12:50:08;29.7;100.0
22674;DHT22;11504;43.334;21.918;2023-07-08T12:54:49;29.7;100.0
22674;DHT22;11504;43.334;21.918;2023-07-08T12:59:26;29.7;100.0
22674;DHT22;11504;43.334;21.918;2023-07-08T13:04:09;29.6;100.0
22674;DHT22;11504;43.334;21.918;2023-07-08T13:08:51;29.6;100.0
22674;DHT22;11504;43.334;21.918;2023-07-08T13:13:34;29.6;100.0
22674;DHT22;11504;43.334;21.918;2023-07-08T13:18:33;29.6;100.0
22674;DHT22;11504;43.334;21.918;2023-07-08T13:23:18;29.5;100.0
22674;DHT22;11504;43.334;21.918;2023-07-08T13:28:02;29.5;100.0
22674;DHT22;11504;43.334;21.918;2023-07-08T13:33:04;29.5;100.0
22674;DHT22;11504;43.334;21.918;2023-07-08T13:37:40;29.5;100.0
22674;DHT22;11504;43.334;21.918;2023-07-08T13:42:17;29.5;100.0
22674;DHT22;11504;43.334;21.918;2023-07-08T13:46:58;29.5;100.0
22674;DHT22;11504;43.334;21.918;2023-07-08T13:51:36;29.4;100.0
22674;DHT22;11504;43.334;21.918;2023-07-08T13:56:19;29.4;100.0
22674;DHT22;11504;43.334;21.918;2023-07-08T14:01:08;29.3;100.0
22674;DHT22;11504;43.334;21.918;2023-07-08T14:05:57;29.3;100.0
22674;DHT22;11504;43.334;21.918;2023-07-08T14:10:33;29.2;100.0
22674;DHT22;11504;43.334;21.918;2023-07-08T14:15:11;29.2;100.0
22674;DHT22;11504;43.334;21.918;2023-07-08T14:19:48;29.2;100.0
22674;DHT22;11504;43.334;21.918;2023-07-08T14:24:25;29.2;100.0
22674;DHT22;11504;43.334;21.918;2023-07-08T14:29:03;29.2;100.0
22674;DHT22;11504;43.334;21.918;2023-07-08T14:33:40;29.0;100.0
22674;DHT22;11504;43.334;21.918;2023-07-08T14:38:17;29.0;100.0
22674;DHT22;11504;43.334;21.918;2023-07-08T14:43:01;28.9;100.0
22674;DHT22;11504;43.334;21.918;2023-07-08T14:48:08;28.9;100.0
22674;DHT22;11504;43.334;21.918;2023-07-08T14:52:49;28.8;100.0
22674;DHT22;11504;43.334;21.918;2023-07-08T14:57:38;28.8;100.0
22674;DHT22;11504;43.334;21.918;2023-07-08T15:02:24;28.7;100.0
22674;DHT22;11504;43.334;21.918;2023-07-08T15:07:01;28.7;100.0
22674;DHT22;11504;43.334;21.918;2023-07-08T15:11:45;28.6;100.0
22674;DHT22;11504;43.334;21.918;2023-07-08T15:16:23;28.6;100.0
22674;DHT22;11504;43.334;21.918;2023-07-08T15:20:59;28.5;100.0
22674;DHT22;11504;43.334;21.918;2023-07-08T15:25:37;28.5;100.0
22674;DHT22;11504;43.334;21.918;2023-07-08T15:30:27;28.4;100.0
22674;DHT22;11504;43.334;21.918;2023-07-08T15:35:14;28.4;100.0
22674;DHT22;11504;43.334;21.918;2023-07-08T15:39:58;28.3;100.0
22674;DHT22;11504;43.334;21.918;2023-07-08T15:44:34;28.3;100.0
22674;DHT22;11504;43.334;21.918;2023-07-08T15:49:15;28.3;100.0
22674;DHT22;11504;43.334;21.918;2023-07-08T15:54:00;28.2;100.0
22674;DHT22;11504;43.334;21.918;2023-07-08T15:58:37;28.2;100.0
22674;DHT22;11504;43.334;21.918;2023-07-08T16:03:25;28.1;100.0
22674;DHT22;11504;43.334;21.918;2023-07-08T16:08:10;28.1;100.0
22674;DHT22;11504;43.334;21.918;2023-07-08T16:12:48;28.0;100.0
22674;DHT22;11504;43.334;21.918;2023-07-08T16:17:24;28.0;100.0
22674;DHT22;11504;43.334;21.918;2023-07-08T16:22:01;27.9;100.0
22674;DHT22;11504;43.334;21.918;2023-07-08T16:26:39;27.9;100.0
22674;DHT22;11504;43.334;21.918;2023-07-08T16:31:20;27.8;100.0
22674;DHT22;11504;43.334;21.918;2023-07-08T16:36:01;27.8;100.0
22674;DHT22;11504;43.334;21.918;2023-07-08T16:40:37;27.8;100.0
22674;DHT22;11504;43.334;21.918;2023-07-08T16:45:19;27.8;100.0
22674;DHT22;11504;43.334;21.918;2023-07-08T16:50:03;27.7;100.0
22674;DHT22;11504;43.334;21.918;2023-07-08T16:54:44;27.7;100.0
22674;DHT22;11504;43.334;21.918;2023-07-08T16:59:22;27.7;100.0
22674;DHT22;11504;43.334;21.918;2023-07-08T17:03:59;27.6;100.0
22674;DHT22;11504;43.334;21.918;2023-07-08T17:08:38;27.6;100.0
22674;DHT22;11504;43.334;21.918;2023-07-08T17:13:15;27.5;100.0
22674;DHT22;11504;43.334;21.918;2023-07-08T17:17:57;27.5;100.0
22674;DHT22;11504;43.334;21.918;2023-07-08T17:22:41;27.4;100.0
22674;DHT22;11504;43.334;21.918;2023-07-08T17:27:19;27.4;100.0
22674;DHT22;11504;43.334;21.918;2023-07-08T17:31:56;27.3;100.0
22674;DHT22;11504;43.334;21.918;2023-07-08T17:36:35;27.3;100.0
22674;DHT22;11504;43.334;21.918;2023-07-08T17:41:16;27.2;100.0
22674;DHT22;11504;43.334;21.918;2023-07-08T17:45:56;27.2;100.0
22674;DHT22;11504;43.334;21.918;2023-07-08T17:50:32;27.0;100.0
22674;DHT22;11504;43.334;21.918;2023-07-08T17:55:09;27.0;100.0
22674;DHT22;11504;43.334;21.918;2023-07-08T17:59:46;27.0;100.0
22674;DHT22;11504;43.334;21.918;2023-07-08T18:04:23;26.9;100.0
22674;DHT22;11504;43.334;21.918;2023-07-08T18:08:59;26.9;100.0
22674;DHT22;11504;43.334;21.918;2023-07-08T18:13:36;26.6;100.0
22674;DHT22;11504;43.334;21.918;2023-07-08T18:18:13;26.6;100.0
22674;DHT22;11504;43.334;21.918;2023-07-08T18:22:53;26.4;100.0
22674;DHT22;11504;43.334;21.918;2023-07-08T18:27:30;26.4;100.0
22674;DHT22;11504;43.334;21.918;2023-07-08T18:32:10;26.2;100.0
22674;DHT22;11504;43.334;21.918;2023-07-08T18:36:47;26.2;100.0
22674;DHT22;11504;43.334;21.918;2023-07-08T18:41:27;26.0;100.0
22674;DHT22;11504;43.334;21.918;2023-07-08T18:46:21;26.0;100.0
22674;DHT22;11504;43.334;21.918;2023-07-08T18:50:59;25.8;100.0
22674;DHT22;11504;43.334;21.918;2023-07-08T18:55:36;25.8;100.0
22674;DHT22;11504;43.334;21.918;2023-07-08T19:00:17;25.5;100.0
22674;DHT22;11504;43.334;21.918;2023-07-08T19:04:56;25.5;100.0
22674;DHT22;11504;43.334;21.918;2023-07-08T19:09:32;25.5;100.0
22674;DHT22;11504;43.334;21.918;2023-07-08T19:14:14;25.4;100.0
22674;DHT22;11504;43.334;21.918;2023-07-08T19:18:53;25.4;100.0
22674;DHT22;11504;43.334;21.918;2023-07-08T19:23:29;25.2;100.0
22674;DHT22;11504;43.334;21.918;2023-07-08T19:28:07;25.2;100.0
22674;DHT22;11504;43.334;21.918;2023-07-08T19:32:51;25.0;100.0
22674;DHT22;11504;43.334;21.918;2023-07-08T19:37:35;25.0;100.0
22674;DHT22;11504;43.334;21.918;2023-07-08T19:42:15;24.9;100.0
22674;DHT22;11504;43.334;21.918;2023-07-08T19:47:03;24.9;100.0
22674;DHT22;11504;43.334;21.918;2023-07-08T19:51:43;24.5;100.0
22674;DHT22;11504;43.334;21.918;2023-07-08T19:56:21;24.5;100.0
22674;DHT22;11504;43.334;21.918;2023-07-08T20:00:57;24.2;100.0
22674;DHT22;11504;43.334;21.918;2023-07-08T20:05:35;24.2;100.0
22674;DHT22;11504;43.334;21.918;2023-07-08T20:10:16;23.8;100.0
22674;DHT22;11504;43.334;21.918;2023-07-08T20:14:54;23.8;100.0
22674;DHT22;11504;43.334;21.918;2023-07-08T20:19:32;23.8;100.0
22674;DHT22;11504;43.334;21.918;2023-07-08T20:24:08;23.4;100.0
22674;DHT22;11504;43.334;21.918;2023-07-08T20:28:45;23.4;100.0
22674;DHT22;11504;43.334;21.918;2023-07-08T20:33:23;23.2;100.0
22674;DHT22;11504;43.334;21.918;2023-07-08T20:38:02;23.2;100.0
22674;DHT22;11504;43.334;21.918;2023-07-08T20:42:39;22.9;100.0
22674;DHT22;11504;43.334;21.918;2023-07-08T20:47:16;22.9;100.0
22674;DHT22;11504;43.334;21.918;2023-07-08T20:51:52;22.6;100.0
22674;DHT22;11504;43.334;21.918;2023-07-08T20:56:32;22.6;100.0
22674;DHT22;11504;43.334;21.918;2023-07-08T21:01:09;22.4;100.0
22674;DHT22;11504;43.334;21.918;2023-07-08T21:05:51;22.4;100.0
22674;DHT22;11504;43.334;21.918;2023-07-08T21:10:34;22.2;100.0
22674;DHT22;11504;43.334;21.918;2023-07-08T21:15:12;22.2;100.0
22674;DHT22;11504;43.334;21.918;2023-07-08T21:19:53;22.2;100.0
22674;DHT22;11504;43.334;21.918;2023-07-08T21:24:30;21.9;100.0
22674;DHT22;11504;43.334;21.918;2023-07-08T21:29:09;21.9;100.0
22674;DHT22;11504;43.334;21.918;2023-07-08T21:33:48;21.7;100.0
22674;DHT22;11504;43.334;21.918;2023-07-08T21:38:25;21.7;100.0
22674;DHT22;11504;43.334;21.918;2023-07-08T21:43:04;21.5;100.0
22674;DHT22;11504;43.334;21.918;2023-07-08T21:47:48;21.5;100.0
22674;DHT22;11504;43.334;21.918;2023-07-08T21:52:24;21.2;100.0
22674;DHT22;11504;43.334;21.918;2023-07-08T21:57:00;21.2;100.0
22674;DHT22;11504;43.334;21.918;2023-07-08T22:01:39;21.0;100.0
22674;DHT22;11504;43.334;21.918;2023-07-08T22:06:18;21.0;100.0
22674;DHT22;11504;43.334;21.918;2023-07-08T22:10:59;21.0;100.0
22674;DHT22;11504;43.334;21.918;2023-07-08T22:15:36;21.0;100.0
22674;DHT22;11504;43.334;21.918;2023-07-08T22:20:13;20.9;100.0
22674;DHT22;11504;43.334;21.918;2023-07-08T22:24:51;20.9;100.0
22674;DHT22;11504;43.334;21.918;2023-07-08T22:29:27;20.9;100.0
22674;DHT22;11504;43.334;21.918;2023-07-08T22:34:13;20.8;100.0
22674;DHT22;11504;43.334;21.918;2023-07-08T22:39:01;20.8;100.0
22674;DHT22;11504;43.334;21.918;2023-07-08T22:43:47;20.7;100.0
22674;DHT22;11504;43.334;21.918;2023-07-08T22:48:25;20.7;100.0
22674;DHT22;11504;43.334;21.918;2023-07-08T22:53:02;20.6;100.0
22674;DHT22;11504;43.334;21.918;2023-07-08T22:57:39;20.6;100.0
22674;DHT22;11504;43.334;21.918;2023-07-08T23:02:16;20.5;100.0
22674;DHT22;11504;43.334;21.918;2023-07-08T23:06:52;20.5;100.0
22674;DHT22;11504;43.334;21.918;2023-07-08T23:11:28;20.2;100.0
22674;DHT22;11504;43.334;21.918;2023-07-08T23:16:20;20.2;100.0
22674;DHT22;11504;43.334;21.918;2023-07-08T23:21:05;20.0;100.0
22674;DHT22;11504;43.334;21.918;2023-07-08T23:25:44;20.0;100.0
22674;DHT22;11504;43.334;21.918;2023-07-08T23:30:21;20.0;100.0
22674;DHT22;11504;43.334;21.918;2023-07-08T23:34:57;20.0;100.0
22674;DHT22;11504;43.334;21.918;2023-07-08T23:39:33;20.0;100.0
22674;DHT22;11504;43.334;21.918;2023-07-08T23:44:10;20.1;100.0
22674;DHT22;11504;43.334;21.918;2023-07-08T23:48:50;20.1;100.0
22674;DHT22;11504;43.334;21.918;2023-07-08T23:53:29;20.2;100.0
22674;DHT22;11504;43.334;21.918;2023-07-08T23:58:13;20.2;100.0
